createdAt,value
2024-04-18T00:01:46.523Z,6.36
2024-04-18T00:04:14.281Z,6.39
2024-04-18T00:06:42.044Z,6.41
2024-04-18T00:09:09.617Z,6.42
2024-04-18T00:11:37.069Z,6.46
2024-04-18T00:14:12.459Z,6.46
2024-04-18T00:16:39.965Z,6.47
2024-04-18T00:19:17.238Z,6.48
2024-04-18T00:21:57.996Z,6.49
2024-04-18T00:24:28.739Z,6.45
2024-04-18T00:26:56.789Z,6.45
2024-04-18T00:29:36.966Z,6.46
2024-04-18T00:32:11.171Z,6.44
2024-04-18T00:34:38.870Z,6.46
2024-04-18T00:37:06.358Z,6.47
2024-04-18T00:39:52.512Z,6.50
2024-04-18T00:42:41.514Z,6.51
2024-04-18T00:45:09.225Z,6.50
2024-04-18T00:47:48.585Z,6.45
2024-04-18T00:50:17.405Z,6.38
2024-04-18T00:52:46.622Z,6.30
2024-04-18T00:55:28.376Z,6.21
2024-04-18T00:58:12.137Z,6.15
2024-04-18T01:00:43.610Z,6.10
2024-04-18T01:03:30.279Z,6.04
2024-04-18T01:06:10.496Z,6.01
2024-04-18T01:08:57.628Z,5.95
2024-04-18T01:11:32.604Z,5.89
2024-04-18T01:14:09.592Z,5.85
2024-04-18T01:16:55.654Z,5.86
2024-04-18T01:19:23.149Z,5.90
2024-04-18T01:21:51.141Z,5.94
2024-04-18T01:24:19.419Z,5.97
2024-04-18T01:26:46.888Z,6.00
2024-04-18T01:29:14.433Z,6.01
2024-04-18T01:32:00.500Z,6.04
2024-04-18T01:34:28.084Z,6.05
2024-04-18T01:37:14.213Z,6.06
2024-04-18T01:39:45.720Z,6.02
2024-04-18T01:42:13.271Z,5.96
2024-04-18T01:44:47.908Z,5.92
2024-04-18T01:47:34.358Z,5.85
2024-04-18T01:50:08.486Z,5.81
2024-04-18T01:52:37.392Z,5.77
2024-04-18T01:55:08.836Z,5.75
2024-04-18T01:57:37.396Z,5.73
2024-04-18T02:00:23.766Z,5.74
2024-04-18T02:02:51.428Z,5.73
2024-04-18T02:05:37.651Z,5.70
2024-04-18T02:08:17.256Z,5.67
2024-04-18T02:10:50.711Z,5.63
2024-04-18T02:13:37.080Z,5.57
2024-04-18T02:16:05.313Z,5.53
2024-04-18T02:18:48.310Z,5.49
2024-04-18T02:21:15.978Z,5.45
2024-04-18T02:23:53.079Z,5.42
2024-04-18T02:26:20.629Z,5.40
2024-04-18T02:28:48.144Z,5.37
2024-04-18T02:31:18.470Z,5.34
2024-04-18T02:33:52.909Z,5.29
2024-04-18T02:36:21.806Z,5.28
2024-04-18T02:38:49.477Z,5.24
2024-04-18T02:41:17.000Z,5.21
2024-04-18T02:43:55.126Z,5.18
2024-04-18T02:46:23.490Z,5.17
2024-04-18T02:49:09.564Z,5.16
2024-04-18T02:51:56.972Z,5.13
2024-04-18T02:54:45.114Z,5.11
2024-04-18T02:57:12.871Z,5.12
2024-04-18T02:59:40.381Z,5.10
2024-04-18T03:02:26.502Z,5.07
2024-04-18T03:05:17.631Z,5.04
2024-04-18T03:07:45.083Z,5.02
2024-04-18T03:10:12.596Z,4.98
2024-04-18T03:12:58.841Z,4.93
2024-04-18T03:15:45.752Z,4.91
2024-04-18T03:18:14.411Z,4.89
2024-04-18T03:20:42.088Z,4.86
2024-04-18T03:23:10.188Z,4.84
2024-04-18T03:25:56.509Z,4.84
2024-04-18T03:28:24.091Z,4.83
2024-04-18T03:30:51.847Z,4.81
2024-04-18T03:33:19.695Z,4.77
2024-04-18T03:35:47.533Z,4.75
2024-04-18T03:38:15.476Z,4.73
2024-04-18T03:40:43.057Z,4.71
2024-04-18T03:43:10.583Z,4.67
2024-04-18T03:45:38.123Z,4.65
2024-04-18T03:48:24.136Z,4.62
2024-04-18T03:50:51.762Z,4.59
2024-04-18T03:53:20.162Z,4.57
2024-04-18T03:55:47.716Z,4.55
2024-04-18T03:58:15.207Z,4.51
2024-04-18T04:00:49.196Z,4.50
2024-04-18T04:03:17.226Z,4.48
2024-04-18T04:05:44.802Z,4.44
2024-04-18T04:08:12.290Z,4.40
2024-04-18T04:10:40.895Z,4.38
2024-04-18T04:13:08.542Z,4.35
2024-04-18T04:15:49.248Z,4.33
2024-04-18T04:18:35.973Z,4.31
2024-04-18T04:21:23.299Z,4.29
2024-04-18T04:23:51.360Z,4.28
2024-04-18T04:26:20.230Z,4.25
2024-04-18T04:28:47.916Z,4.24
2024-04-18T04:31:15.563Z,4.22
2024-04-18T04:33:43.282Z,4.21
2024-04-18T04:36:10.763Z,4.20
2024-04-18T04:38:39.745Z,4.20
2024-04-18T04:41:07.586Z,4.20
2024-04-18T04:43:35.126Z,4.20
2024-04-18T04:46:15.302Z,4.18
2024-04-18T04:48:43.111Z,4.18
2024-04-18T04:51:15.631Z,4.15
2024-04-18T04:53:43.186Z,4.14
2024-04-18T04:56:30.619Z,4.11
2024-04-18T04:59:18.037Z,4.09
2024-04-18T05:01:50.224Z,4.09
2024-04-18T05:04:37.766Z,4.07
2024-04-18T05:07:05.577Z,4.07
2024-04-18T05:09:33.807Z,4.07
2024-04-18T05:12:01.330Z,4.06
2024-04-18T05:14:34.755Z,4.05
2024-04-18T05:17:22.181Z,4.05
2024-04-18T05:20:10.594Z,4.05
2024-04-18T05:22:38.092Z,4.05
2024-04-18T05:25:05.800Z,4.05
2024-04-18T05:27:33.729Z,4.06
2024-04-18T05:30:19.633Z,4.06
2024-04-18T05:32:47.302Z,4.09
2024-04-18T05:35:14.878Z,4.14
2024-04-18T05:37:42.329Z,4.16
2024-04-18T05:40:10.067Z,4.20
2024-04-18T05:42:37.543Z,4.21
2024-04-18T05:45:11.344Z,4.25
2024-04-18T05:47:57.540Z,4.29
2024-04-18T05:50:26.640Z,4.32
2024-04-18T05:52:54.463Z,4.34
2024-04-18T05:55:22.020Z,4.36
2024-04-18T05:57:49.679Z,4.41
2024-04-18T06:00:36.416Z,4.47
2024-04-18T06:03:04.434Z,4.53
2024-04-18T06:05:32.177Z,4.59
2024-04-18T06:08:15.052Z,4.68
2024-04-18T06:10:43.382Z,4.75
2024-04-18T06:13:21.298Z,4.81
2024-04-18T06:15:49.607Z,4.88
2024-04-18T06:18:18.080Z,4.98
2024-04-18T06:20:52.530Z,5.09
2024-04-18T06:23:20.406Z,5.20
2024-04-18T06:26:08.073Z,5.30
2024-04-18T06:28:35.580Z,5.40
2024-04-18T06:31:03.957Z,5.56
2024-04-18T06:33:31.705Z,5.94
2024-04-18T06:35:59.968Z,6.31
2024-04-18T06:38:27.538Z,6.65
2024-04-18T06:40:55.111Z,6.96
2024-04-18T06:43:41.439Z,7.51
2024-04-18T06:46:09.913Z,7.89
2024-04-18T06:48:37.673Z,8.07
2024-04-18T06:51:05.482Z,8.23
2024-04-18T06:53:32.937Z,8.37
2024-04-18T06:56:01.373Z,8.54
2024-04-18T06:58:29.160Z,8.51
2024-04-18T07:00:56.769Z,8.43
2024-04-18T07:03:24.534Z,8.28
2024-04-18T07:05:52.916Z,8.05
2024-04-18T07:08:25.303Z,7.92
2024-04-18T07:10:53.924Z,7.92
2024-04-18T07:13:33.851Z,7.90
2024-04-18T07:16:22.582Z,7.97
2024-04-18T07:18:55.999Z,8.06
2024-04-18T07:21:23.679Z,8.12
2024-04-18T07:23:51.200Z,8.13
2024-04-18T07:26:38.994Z,8.26
2024-04-18T07:29:06.602Z,8.47
2024-04-18T07:31:34.050Z,8.54
2024-04-18T07:34:17.227Z,8.48
2024-04-18T07:36:47.174Z,8.46
2024-04-18T07:39:15.102Z,8.38
2024-04-18T07:41:42.607Z,8.40
2024-04-18T07:44:12.670Z,8.54
2024-04-18T07:46:40.860Z,8.66
2024-04-18T07:49:09.398Z,8.76
2024-04-18T07:51:38.212Z,8.76
2024-04-18T07:54:05.865Z,8.80
2024-04-18T07:56:34.166Z,8.89
2024-04-18T07:59:02.511Z,8.94
2024-04-18T08:01:32.318Z,8.99
2024-04-18T08:04:17.796Z,9.03
2024-04-18T08:06:51.060Z,9.04
2024-04-18T08:09:23.827Z,8.99
2024-04-18T08:12:18.198Z,9.11
2024-04-18T08:14:43.743Z,9.33
2024-04-18T08:17:14.079Z,9.36
2024-04-18T08:19:41.785Z,9.41
2024-04-18T08:22:09.258Z,9.61
2024-04-18T08:24:37.180Z,9.79
2024-04-18T08:27:08.079Z,10.04
2024-04-18T08:29:35.758Z,10.30
2024-04-18T08:32:03.755Z,10.44
2024-04-18T08:34:32.824Z,10.68
2024-04-18T08:37:01.411Z,10.90
2024-04-18T08:39:29.064Z,11.21
2024-04-18T08:41:59.855Z,11.40
2024-04-18T08:44:27.570Z,11.12
2024-04-18T08:46:58.649Z,10.84
2024-04-18T08:49:27.467Z,10.93
2024-04-18T08:51:55.370Z,11.26
2024-04-18T08:54:22.907Z,11.42
2024-04-18T08:56:57.250Z,11.35
2024-04-18T08:59:24.838Z,11.11
2024-04-18T09:01:53.225Z,10.86
2024-04-18T09:04:20.726Z,10.65
2024-04-18T09:06:48.211Z,10.55
2024-04-18T09:09:17.930Z,10.53
2024-04-18T09:11:47.912Z,10.59
2024-04-18T09:14:15.557Z,10.91
2024-04-18T09:16:44.696Z,11.30
2024-04-18T09:19:13.738Z,11.80
2024-04-18T09:21:42.076Z,12.44
2024-04-18T09:24:09.719Z,13.05
2024-04-18T09:26:37.389Z,13.26
2024-04-18T09:29:04.905Z,13.18
2024-04-18T09:31:38.437Z,12.87
2024-04-18T09:34:15.377Z,12.55
2024-04-18T09:36:43.307Z,12.21
2024-04-18T09:39:11.839Z,11.93
2024-04-18T09:41:42.269Z,11.69
2024-04-18T09:44:22.240Z,11.50
2024-04-18T09:46:51.516Z,11.39
2024-04-18T09:49:19.945Z,11.58
2024-04-18T09:51:48.930Z,11.99
2024-04-18T09:54:18.350Z,12.35
2024-04-18T09:56:47.643Z,12.76
2024-04-18T09:59:16.981Z,13.24
2024-04-18T10:01:44.867Z,13.63
2024-04-18T10:04:12.570Z,13.69
2024-04-18T10:06:44.508Z,13.69
2024-04-18T10:09:15.642Z,13.71
2024-04-18T10:11:43.617Z,13.32
2024-04-18T10:14:12.568Z,12.94
2024-04-18T10:16:48.839Z,12.67
2024-04-18T10:19:21.939Z,12.50
2024-04-18T10:24:35.808Z,13.01
2024-04-18T10:27:12.249Z,13.17
2024-04-18T10:29:39.968Z,13.31
2024-04-18T10:32:08.990Z,13.52
2024-04-18T10:34:36.616Z,13.63
2024-04-18T10:37:07.384Z,13.55
2024-04-18T10:39:41.133Z,13.43
2024-04-18T10:42:10.161Z,13.34
2024-04-18T10:44:38.281Z,13.35
2024-04-18T10:47:07.500Z,13.45
2024-04-18T10:49:35.167Z,13.59
2024-04-18T10:52:04.592Z,13.62
2024-04-18T10:54:32.101Z,13.76
2024-04-18T10:56:59.681Z,13.82
2024-04-18T10:59:28.051Z,13.69
2024-04-18T11:02:10.183Z,13.70
2024-04-18T11:04:37.724Z,13.81
2024-04-18T11:07:05.200Z,13.96
2024-04-18T11:09:34.856Z,14.06
2024-04-18T11:12:03.068Z,14.08
2024-04-18T11:14:30.636Z,14.11
2024-04-18T11:17:01.023Z,14.11
2024-04-18T11:19:30.079Z,14.04
2024-04-18T11:22:01.972Z,14.13
2024-04-18T11:24:30.214Z,14.28
2024-04-18T11:26:57.869Z,14.36
2024-04-18T11:29:28.745Z,14.36
2024-04-18T11:32:11.480Z,14.46
2024-04-18T11:34:39.669Z,14.64
2024-04-18T11:37:08.645Z,14.58
2024-04-18T11:39:36.635Z,14.38
2024-04-18T11:42:04.354Z,14.22
2024-04-18T11:44:33.453Z,14.26
2024-04-18T11:47:01.545Z,14.43
2024-04-18T11:49:29.220Z,14.58
2024-04-18T11:51:57.681Z,14.69
2024-04-18T11:54:25.716Z,14.65
2024-04-18T11:56:54.779Z,14.63
2024-04-18T11:59:32.909Z,14.60
2024-04-18T12:02:00.444Z,14.52
2024-04-18T12:04:30.071Z,14.52
2024-04-18T12:06:57.650Z,14.43
2024-04-18T12:09:28.911Z,14.39
2024-04-18T12:12:00.009Z,14.51
2024-04-18T12:14:47.640Z,14.77
2024-04-18T12:17:30.499Z,14.94
2024-04-18T12:20:16.876Z,15.13
2024-04-18T12:22:44.434Z,15.16
2024-04-18T12:25:18.318Z,15.10
2024-04-18T12:27:47.078Z,15.15
2024-04-18T12:30:34.164Z,15.19
2024-04-18T12:33:20.624Z,15.45
2024-04-18T12:35:48.583Z,15.48
2024-04-18T12:38:16.186Z,15.50
2024-04-18T12:40:46.728Z,15.64
2024-04-18T12:43:16.425Z,15.77
2024-04-18T12:46:11.551Z,15.84
2024-04-18T12:48:52.444Z,15.90
2024-04-18T12:51:20.179Z,15.96
2024-04-18T12:53:47.795Z,16.05
2024-04-18T12:56:15.478Z,16.08
2024-04-18T12:58:43.290Z,16.17
2024-04-18T13:01:11.735Z,16.23
2024-04-18T13:03:43.755Z,16.11
2024-04-18T13:06:30.329Z,16.22
2024-04-18T13:08:58.895Z,16.11
2024-04-18T13:11:45.737Z,16.07
2024-04-18T13:14:13.245Z,16.15
2024-04-18T13:16:40.879Z,16.20
2024-04-18T13:19:12.104Z,16.20
2024-04-18T13:21:40.323Z,16.19
2024-04-18T13:24:12.097Z,16.10
2024-04-18T13:26:52.765Z,16.16
2024-04-18T13:29:21.179Z,16.18
2024-04-18T13:31:48.783Z,16.24
2024-04-18T13:34:20.432Z,16.26
2024-04-18T13:36:48.155Z,15.86
2024-04-18T13:39:16.064Z,15.79
2024-04-18T13:41:47.584Z,16.08
2024-04-18T13:44:18.604Z,16.31
2024-04-18T13:46:46.370Z,16.34
2024-04-18T13:49:33.925Z,16.45
2024-04-18T13:52:01.478Z,16.46
2024-04-18T13:54:35.793Z,16.63
2024-04-18T13:57:06.785Z,16.52
2024-04-18T13:59:44.346Z,16.12
2024-04-18T14:02:30.521Z,15.97
2024-04-18T14:05:20.656Z,15.99
2024-04-18T14:08:04.121Z,15.89
2024-04-18T14:10:32.039Z,15.81
2024-04-18T14:13:21.101Z,15.82
2024-04-18T14:16:10.630Z,15.80
2024-04-18T14:19:04.372Z,15.70
2024-04-18T14:21:35.816Z,15.74
2024-04-18T14:24:06.406Z,15.64
2024-04-18T14:26:33.971Z,15.58
2024-04-18T14:29:20.386Z,15.52
2024-04-18T14:32:01.972Z,15.51
2024-04-18T14:34:48.749Z,15.58
2024-04-18T14:37:17.467Z,15.66
2024-04-18T14:39:45.120Z,15.72
2024-04-18T14:42:12.728Z,15.62
2024-04-18T14:44:40.300Z,15.62
2024-04-18T14:47:15.565Z,15.66
2024-04-18T14:50:02.536Z,15.75
2024-04-18T14:52:36.296Z,15.90
2024-04-18T14:55:25.352Z,16.00
2024-04-18T14:57:52.842Z,16.17
2024-04-18T15:00:21.156Z,16.21
2024-04-18T15:02:48.678Z,16.19
2024-04-18T15:05:57.036Z,16.07
2024-04-18T15:08:41.865Z,15.93
2024-04-18T15:11:26.737Z,15.77
2024-04-18T15:14:07.559Z,15.66
2024-04-18T15:16:35.423Z,15.65
2024-04-18T15:19:03.127Z,15.70
2024-04-18T15:21:49.847Z,15.63
2024-04-18T15:24:17.488Z,15.58
2024-04-18T15:27:04.881Z,15.51
2024-04-18T15:29:33.833Z,15.56
2024-04-18T15:32:20.958Z,15.62
2024-04-18T15:34:49.215Z,15.55
2024-04-18T15:37:42.734Z,15.35
2024-04-18T15:40:10.796Z,15.33
2024-04-18T15:42:38.755Z,15.28
2024-04-18T15:45:26.643Z,15.23
2024-04-18T15:47:54.330Z,15.28
2024-04-18T15:50:24.650Z,15.19
2024-04-18T15:52:53.350Z,15.06
2024-04-18T15:55:33.185Z,14.98
2024-04-18T15:58:19.447Z,14.83
2024-04-18T16:00:47.033Z,14.73
2024-04-18T16:03:33.924Z,14.68
2024-04-18T16:06:23.127Z,14.68
2024-04-18T16:09:09.201Z,14.69
2024-04-18T16:11:40.322Z,14.70
2024-04-18T16:14:28.412Z,14.80
2024-04-18T16:16:56.021Z,14.83
2024-04-18T16:19:39.674Z,14.84
2024-04-18T16:22:07.188Z,14.84
2024-04-18T16:24:50.021Z,14.84
2024-04-18T16:27:17.710Z,14.74
2024-04-18T16:30:00.632Z,14.62
2024-04-18T16:32:45.574Z,14.63
2024-04-18T16:35:13.233Z,14.63
2024-04-18T16:37:41.813Z,14.56
2024-04-18T16:40:15.871Z,14.65
2024-04-18T16:42:59.194Z,14.64
2024-04-18T16:45:26.789Z,14.58
2024-04-18T16:47:54.394Z,14.51
2024-04-18T16:50:22.012Z,14.37
2024-04-18T16:52:50.631Z,14.29
2024-04-18T16:55:36.845Z,14.26
2024-04-18T16:58:17.206Z,14.23
2024-04-18T17:01:00.177Z,14.12
2024-04-18T17:03:28.227Z,13.95
2024-04-18T17:06:03.023Z,13.78
2024-04-18T17:08:31.323Z,13.64
2024-04-18T17:10:58.941Z,13.54
2024-04-18T17:13:45.371Z,13.42
2024-04-18T17:16:13.035Z,13.31
2024-04-18T17:18:49.504Z,13.24
2024-04-18T17:21:17.125Z,13.17
2024-04-18T17:23:44.570Z,13.13
2024-04-18T17:26:12.028Z,13.09
2024-04-18T17:28:39.769Z,13.00
2024-04-18T17:31:07.274Z,12.93
2024-04-18T17:33:34.792Z,12.90
2024-04-18T17:36:02.441Z,12.82
2024-04-18T17:38:49.132Z,12.62
2024-04-18T17:41:30.491Z,12.34
2024-04-18T17:44:16.856Z,12.05
2024-04-18T17:46:57.066Z,11.80
2024-04-18T17:49:25.399Z,11.69
2024-04-18T17:51:55.043Z,11.59
2024-04-18T17:54:22.877Z,11.48
2024-04-18T17:56:51.257Z,11.42
2024-04-18T17:59:20.134Z,11.37
2024-04-18T18:01:47.717Z,11.32
2024-04-18T18:04:15.457Z,11.29
2024-04-18T18:06:43.163Z,11.26
2024-04-18T18:09:10.895Z,11.24
2024-04-18T18:11:38.570Z,11.25
2024-04-18T18:14:06.201Z,11.26
2024-04-18T18:16:58.384Z,11.24
2024-04-18T18:19:25.955Z,11.21
2024-04-18T18:22:00.619Z,11.18
2024-04-18T18:24:28.459Z,11.14
2024-04-18T18:26:56.452Z,11.14
2024-04-18T18:29:23.958Z,11.11
2024-04-18T18:32:14.154Z,11.09
2024-04-18T18:34:43.342Z,11.09
2024-04-18T18:37:10.885Z,11.10
2024-04-18T18:39:39.006Z,11.08
2024-04-18T18:42:06.663Z,11.06
2024-04-18T18:44:34.397Z,11.04
2024-04-18T18:47:01.913Z,11.02
2024-04-18T18:49:48.305Z,11.02
2024-04-18T18:52:15.942Z,11.03
2024-04-18T18:54:43.486Z,11.03
2024-04-18T18:57:11.137Z,11.02
2024-04-18T18:59:42.046Z,11.01
2024-04-18T19:02:09.550Z,11.00
2024-04-18T19:04:57.241Z,10.98
2024-04-18T19:07:24.985Z,10.97
2024-04-18T19:09:52.481Z,10.96
2024-04-18T19:12:20.046Z,10.96
2024-04-18T19:14:47.590Z,10.96
2024-04-18T19:17:15.107Z,10.96
2024-04-18T19:19:42.608Z,10.96
2024-04-18T19:22:10.080Z,10.95
2024-04-18T19:24:37.809Z,10.93
2024-04-18T19:27:05.404Z,10.92
2024-04-18T19:29:40.383Z,10.86
2024-04-18T19:32:16.242Z,10.78
2024-04-18T19:34:43.852Z,10.63
2024-04-18T19:37:11.317Z,10.47
2024-04-18T19:39:38.952Z,10.36
2024-04-18T19:42:06.621Z,10.26
2024-04-18T19:44:34.256Z,10.16
2024-04-18T19:47:04.033Z,10.07
2024-04-18T19:49:35.530Z,9.97
2024-04-18T19:52:06.175Z,9.90
2024-04-18T19:54:36.075Z,9.83
2024-04-18T19:57:04.894Z,9.74
2024-04-18T19:59:32.881Z,9.69
2024-04-18T20:02:00.517Z,9.65
2024-04-18T20:04:28.225Z,9.61
2024-04-18T20:06:55.804Z,9.56
2024-04-18T20:09:23.382Z,9.50
2024-04-18T20:11:50.947Z,9.45
2024-04-18T20:14:21.105Z,9.37
2024-04-18T20:16:48.655Z,9.32
2024-04-18T20:19:16.749Z,9.26
2024-04-18T20:21:44.884Z,9.18
2024-04-18T20:24:14.178Z,9.13
2024-04-18T20:27:00.360Z,9.07
2024-04-18T20:29:46.649Z,9.00
2024-04-18T20:32:25.028Z,8.92
2024-04-18T20:34:54.168Z,8.86
2024-04-18T20:37:24.117Z,8.81
2024-04-18T20:39:55.570Z,8.77
2024-04-18T20:42:25.142Z,8.75
2024-04-18T20:45:03.254Z,8.73
2024-04-18T20:47:31.099Z,8.69
2024-04-18T20:49:58.681Z,8.68
2024-04-18T20:52:26.136Z,8.64
2024-04-18T20:54:53.656Z,8.60
2024-04-18T20:57:22.848Z,8.57
2024-04-18T20:59:51.162Z,8.55
2024-04-18T21:02:18.643Z,8.54
2024-04-18T21:04:46.557Z,8.51
2024-04-18T21:07:13.988Z,8.46
2024-04-18T21:09:41.569Z,8.45
2024-04-18T21:12:09.109Z,8.43
2024-04-18T21:14:36.667Z,8.41
2024-04-18T21:17:04.504Z,8.37
2024-04-18T21:19:32.007Z,8.36
2024-04-18T21:21:59.738Z,8.33
2024-04-18T21:24:27.260Z,8.32
2024-04-18T21:26:54.888Z,8.31
2024-04-18T21:29:22.392Z,8.28
2024-04-18T21:31:49.855Z,8.25
2024-04-18T21:34:17.968Z,8.21
2024-04-18T21:36:45.574Z,8.19
2024-04-18T21:39:14.385Z,8.18
2024-04-18T21:41:42.732Z,8.16
2024-04-18T21:44:10.363Z,8.14
2024-04-18T21:46:37.830Z,8.13
2024-04-18T21:49:05.329Z,8.13
2024-04-18T21:51:32.942Z,8.10
2024-04-18T21:54:01.114Z,8.13
2024-04-18T21:56:28.642Z,8.13
2024-04-18T21:58:56.124Z,8.11
2024-04-18T22:01:41.692Z,8.11
2024-04-18T22:04:10.021Z,8.11
2024-04-18T22:06:37.781Z,8.11
2024-04-18T22:09:05.680Z,8.13
2024-04-18T22:11:33.247Z,8.14
2024-04-18T22:14:00.847Z,8.15
2024-04-18T22:16:28.343Z,8.18
2024-04-18T22:18:55.912Z,8.21
2024-04-18T22:21:36.648Z,8.21
2024-04-18T22:24:05.453Z,8.20
2024-04-18T22:26:33.974Z,8.20
2024-04-18T22:29:01.471Z,8.21
2024-04-18T22:31:29.134Z,8.21
2024-04-18T22:33:56.781Z,8.23
2024-04-18T22:36:26.574Z,8.24
2024-04-18T22:38:54.237Z,8.24
2024-04-18T22:41:21.816Z,8.25
2024-04-18T22:43:49.276Z,8.23
2024-04-18T22:46:16.749Z,8.24
2024-04-18T22:48:44.524Z,8.23
2024-04-18T22:51:12.028Z,8.22
2024-04-18T22:53:39.531Z,8.22
2024-04-18T22:56:07.203Z,8.22
2024-04-18T22:58:34.734Z,8.22
2024-04-18T23:01:05.447Z,8.23
2024-04-18T23:03:33.415Z,8.24
2024-04-18T23:06:16.350Z,8.27
2024-04-18T23:08:44.210Z,8.30
2024-04-18T23:11:13.345Z,8.33
2024-04-18T23:13:41.254Z,8.34
2024-04-18T23:16:08.859Z,8.36
2024-04-18T23:18:36.564Z,8.40
2024-04-18T23:21:04.408Z,8.41
2024-04-18T23:23:34.570Z,8.44
2024-04-18T23:26:02.677Z,8.47
2024-04-18T23:28:30.194Z,8.50
2024-04-18T23:30:57.683Z,8.53
2024-04-18T23:33:25.348Z,8.57
2024-04-18T23:35:52.880Z,8.62
2024-04-18T23:38:20.573Z,8.65
2024-04-18T23:40:48.648Z,8.69
2024-04-18T23:43:16.132Z,8.71
2024-04-18T23:45:43.768Z,8.77
2024-04-18T23:48:12.813Z,8.80
2024-04-18T23:50:42.049Z,8.84
2024-04-18T23:53:09.467Z,8.85
2024-04-18T23:55:36.943Z,8.84
2024-04-18T23:58:04.612Z,8.82
